Time;durP1;ratioP1;P1;durP2;ratioP2;P2;SDS_P1;SDS_P2;PMS_P1;PMS_P2;Temp;Humidity;BMP_temperature;BMP_pressure;BME280_temperature;BME280_humidity;BME280_pressure;Samples;Min_cycle;Max_cycle;Signal;HPM_P1;HPM_P2
2023/07/16 00:00:00;;;;;;;10.97;10.00;;;;;;;26.57;53.90;95320.34;6109301;28;109407;-64
2023/07/16 00:03:03;;;;;;;10.07;9.07;;;;;;;26.58;53.93;95314.66;6117500;28;109172;-59
2023/07/16 00:06:07;;;;;;;10.37;9.50;;;;;;;26.63;53.79;95316.38;6115228;28;110248;-59
2023/07/16 00:09:11;;;;;;;10.57;9.47;;;;;;;26.67;53.47;95308.44;6118241;28;109102;-59
2023/07/16 00:12:14;;;;;;;10.77;9.87;;;;;;;26.63;53.81;95311.00;6118556;28;109393;-59
2023/07/16 00:15:17;;;;;;;15.27;9.50;;;;;;;26.63;53.45;95313.69;6113069;28;112440;-59
2023/07/16 00:18:21;;;;;;;10.90;9.80;;;;;;;26.58;53.19;95311.97;6113087;28;109090;-59
2023/07/16 00:21:24;;;;;;;10.53;9.40;;;;;;;26.64;53.75;95317.94;6136997;28;109040;-59
2023/07/16 00:24:29;;;;;;;9.53;8.73;;;;;;;26.65;52.87;95313.34;6117774;28;109089;-60
2023/07/16 00:27:32;;;;;;;10.53;9.53;;;;;;;26.63;53.16;95315.56;6112422;28;110019;-59
2023/07/16 00:30:35;;;;;;;9.60;8.90;;;;;;;26.53;53.62;95308.66;6124950;28;110140;-59
2023/07/16 00:33:38;;;;;;;9.10;8.20;;;;;;;26.51;53.69;95317.06;6113702;28;108909;-60
2023/07/16 00:36:42;;;;;;;10.70;9.60;;;;;;;26.54;53.61;95310.25;6106599;28;109454;-59
2023/07/16 00:39:46;;;;;;;9.30;8.40;;;;;;;26.46;54.11;95317.25;6136385;28;108956;-63
2023/07/16 00:42:49;;;;;;;8.60;7.67;;;;;;;26.35;54.06;95313.38;6111330;28;109133;-59
2023/07/16 00:45:52;;;;;;;9.47;8.50;;;;;;;26.37;53.88;95313.84;6125112;28;109217;-60
2023/07/16 00:48:56;;;;;;;9.30;8.40;;;;;;;26.34;54.18;95311.03;6116831;28;109107;-59
2023/07/16 00:52:00;;;;;;;9.47;8.30;;;;;;;26.36;53.61;95314.16;6124377;28;109208;-59
2023/07/16 00:55:06;;;;;;;8.90;7.50;;;;;;;26.36;53.96;95308.78;6132799;28;109264;-59
2023/07/16 00:58:09;;;;;;;8.60;7.87;;;;;;;26.23;54.26;95308.75;6084382;28;109704;-59
2023/07/16 01:01:12;;;;;;;9.03;8.23;;;;;;;26.35;53.46;95312.59;6135868;28;109053;-59
2023/07/16 01:04:15;;;;;;;7.60;6.53;;;;;;;26.35;53.62;95308.00;6117751;28;109117;-59
2023/07/16 01:07:22;;;;;;;7.90;7.20;;;;;;;26.40;53.12;95309.75;6128795;28;109068;-59
2023/07/16 01:10:28;;;;;;;8.47;7.67;;;;;;;26.42;53.76;95312.88;6102927;28;109164;-59
2023/07/16 01:13:31;;;;;;;8.60;7.90;;;;;;;26.46;53.20;95306.53;6111995;28;111555;-63
2023/07/16 01:16:34;;;;;;;8.17;7.43;;;;;;;26.43;53.71;95304.50;6111871;28;108962;-59
2023/07/16 01:19:38;;;;;;;8.90;8.13;;;;;;;26.49;53.71;95305.06;6108151;28;108865;-59
2023/07/16 01:23:00;;;;;;;8.23;7.23;;;;;;;26.39;54.04;95308.16;6116162;28;108913;-59
2023/07/16 01:26:19;;;;;;;8.37;7.60;;;;;;;26.44;53.38;95316.00;6115374;28;109018;-59
2023/07/16 01:29:31;;;;;;;8.50;7.33;;;;;;;26.44;52.82;95302.59;6123396;28;109133;-59
2023/07/16 01:32:37;;;;;;;8.53;7.47;;;;;;;26.38;53.70;95303.88;6103334;28;109179;-60
2023/07/16 01:35:41;;;;;;;7.57;6.83;;;;;;;26.21;53.83;95305.59;6121105;28;109355;-59
2023/07/16 01:38:45;;;;;;;8.70;7.00;;;;;;;26.22;54.02;95304.50;6118298;28;111682;-59
2023/07/16 01:41:48;;;;;;;8.50;7.57;;;;;;;26.26;54.04;95300.03;6112838;28;109542;-59
2023/07/16 01:44:53;;;;;;;9.07;7.47;;;;;;;26.40;53.29;95307.06;6100734;28;111117;-59
2023/07/16 01:48:12;;;;;;;8.47;7.67;;;;;;;26.46;53.45;95306.53;6125595;28;109170;-59
2023/07/16 01:51:15;;;;;;;8.13;7.53;;;;;;;26.58;53.09;95305.81;6118028;28;110309;-59
2023/07/16 01:54:18;;;;;;;8.53;7.20;;;;;;;26.58;52.56;95311.97;6115231;28;110211;-59
2023/07/16 01:57:21;;;;;;;7.57;6.97;;;;;;;26.68;52.43;95316.16;6112291;28;112065;-59
2023/07/16 02:00:25;;;;;;;7.23;6.63;;;;;;;26.73;51.97;95318.66;6111712;28;109202;-60
2023/07/16 02:03:28;;;;;;;9.40;7.40;;;;;;;26.77;52.43;95311.53;6111769;28;109116;-60
2023/07/16 02:06:32;;;;;;;7.73;6.83;;;;;;;26.78;52.14;95310.41;6104562;28;109181;-65
2023/07/16 02:09:36;;;;;;;7.40;6.70;;;;;;;26.74;51.97;95309.50;6124136;28;109084;-65
2023/07/16 02:12:39;;;;;;;7.03;5.90;;;;;;;26.66;51.88;95307.66;6115793;28;109366;-65
2023/07/16 02:15:43;;;;;;;6.77;6.17;;;;;;;26.56;52.25;95308.03;6114133;28;110007;-65
2023/07/16 02:18:47;;;;;;;7.37;6.03;;;;;;;26.57;52.20;95310.41;6106354;28;109049;-65
2023/07/16 02:21:50;;;;;;;6.93;5.60;;;;;;;26.51;52.05;95313.59;6138058;28;109113;-65
2023/07/16 02:24:53;;;;;;;6.40;5.90;;;;;;;26.53;52.47;95316.72;6137022;28;108997;-65
2023/07/16 02:27:56;;;;;;;8.83;6.97;;;;;;;26.58;52.48;95319.22;6109558;28;109770;-65
2023/07/16 02:31:00;;;;;;;9.50;6.70;;;;;;;26.58;51.85;95316.53;6109939;28;109373;-65
2023/07/16 02:34:03;;;;;;;9.60;6.70;;;;;;;26.62;52.05;95316.66;6114928;28;109630;-65
2023/07/16 02:37:07;;;;;;;6.80;6.10;;;;;;;26.43;52.51;95315.22;6115948;28;109241;-65
2023/07/16 02:40:10;;;;;;;6.43;5.93;;;;;;;26.44;52.53;95316.00;6102951;28;109115;-65
2023/07/16 02:43:13;;;;;;;6.70;6.00;;;;;;;26.58;51.77;95311.97;6115008;28;110094;-65
2023/07/16 02:46:18;;;;;;;6.77;6.17;;;;;;;26.44;52.40;95313.34;6123680;28;109098;-65
2023/07/16 02:49:21;;;;;;;6.63;6.03;;;;;;;26.51;51.98;95314.38;6134371;28;109095;-65
2023/07/16 02:52:24;;;;;;;7.10;6.40;;;;;;;26.43;52.59;95309.06;6111339;28;109062;-65
2023/07/16 02:55:27;;;;;;;6.67;6.17;;;;;;;26.57;52.32;95323.03;6129930;28;109370;-65
2023/07/16 02:58:31;;;;;;;6.90;6.30;;;;;;;26.62;52.25;95311.31;6138687;28;110061;-65
2023/07/16 03:01:35;;;;;;;6.80;6.20;;;;;;;26.60;52.21;95317.00;6112596;28;109301;-66
2023/07/16 03:04:38;;;;;;;7.30;6.37;;;;;;;26.69;52.11;95323.09;6108563;28;110676;-65
2023/07/16 03:07:42;;;;;;;6.93;6.00;;;;;;;26.72;52.28;95322.47;6130625;28;109038;-66
2023/07/16 03:10:45;;;;;;;7.30;6.13;;;;;;;26.59;52.76;95318.13;6123474;28;109048;-65
2023/07/16 03:13:48;;;;;;;6.73;6.13;;;;;;;26.53;52.88;95320.19;6129132;28;109260;-65
2023/07/16 03:16:52;;;;;;;9.90;9.07;;;;;;;26.47;52.81;95326.88;6115069;28;109488;-65
2023/07/16 03:19:55;;;;;;;8.90;7.17;;;;;;;26.42;52.77;95319.03;6114459;28;109065;-68
2023/07/16 03:22:58;;;;;;;7.60;6.97;;;;;;;26.51;52.18;95321.63;6114264;28;109056;-66
2023/07/16 03:26:01;;;;;;;7.20;6.60;;;;;;;26.50;52.46;95323.53;6118534;28;109145;-65
2023/07/16 03:29:04;;;;;;;10.57;9.67;;;;;;;26.57;52.12;95326.50;6113809;28;109849;-66
2023/07/16 03:32:09;;;;;;;15.43;14.07;;;;;;;26.65;51.98;95324.09;6129520;28;109342;-65
2023/07/16 03:35:12;;;;;;;11.47;10.37;;;;;;;26.72;51.66;95332.41;6113879;28;109185;-65
2023/07/16 03:38:16;;;;;;;22.83;20.73;;;;;;;26.75;51.71;95332.53;6115662;28;109058;-65
2023/07/16 03:41:19;;;;;;;11.53;10.53;;;;;;;26.77;51.26;95338.38;6104513;28;112681;-71
2023/07/16 03:44:22;;;;;;;20.30;18.40;;;;;;;26.79;51.80;95333.44;6103575;28;109921;-67
2023/07/16 03:47:27;;;;;;;14.93;13.63;;;;;;;26.73;51.75;95340.16;6130005;28;110348;-64
2023/07/16 03:50:31;;;;;;;11.80;10.80;;;;;;;26.80;52.26;95337.72;6117898;28;109285;-65
2023/07/16 03:53:34;;;;;;;12.73;11.63;;;;;;;26.81;51.80;95346.56;6113207;28;109087;-65
2023/07/16 03:56:37;;;;;;;15.07;13.87;;;;;;;26.81;51.79;95341.19;6128463;28;108757;-65
2023/07/16 03:59:40;;;;;;;14.63;13.40;;;;;;;26.86;51.36;95343.66;6126823;28;108951;-65
2023/07/16 04:02:44;;;;;;;14.00;12.77;;;;;;;26.87;51.45;95348.69;6112994;28;109201;-65
2023/07/16 04:05:47;;;;;;;9.97;9.17;;;;;;;26.86;51.97;95341.75;6126124;28;109231;-65
2023/07/16 04:08:51;;;;;;;11.60;10.43;;;;;;;26.86;51.60;95344.44;6137284;28;109090;-64
2023/07/16 04:11:54;;;;;;;10.83;9.77;;;;;;;26.83;52.10;95347.00;6112530;28;109128;-64
2023/07/16 04:14:59;;;;;;;9.50;8.70;;;;;;;26.76;51.87;95347.53;6116987;28;109125;-64
2023/07/16 04:18:03;;;;;;;8.40;7.70;;;;;;;26.61;52.86;95353.47;6135336;28;109293;-64
2023/07/16 04:21:07;;;;;;;8.50;7.50;;;;;;;26.64;52.77;95350.16;6136941;28;109269;-64
2023/07/16 04:24:10;;;;;;;8.27;7.43;;;;;;;26.64;52.91;95352.84;6120659;28;109223;-63
2023/07/16 04:27:13;;;;;;;8.50;7.80;;;;;;;26.53;53.09;95357.78;6126812;28;109045;-65
2023/07/16 04:30:16;;;;;;;7.70;7.03;;;;;;;26.60;53.24;95359.94;6112523;28;109189;-64
2023/07/16 04:33:21;;;;;;;7.40;6.80;;;;;;;26.70;52.93;95356.09;6079881;28;109177;-64
2023/07/16 04:36:24;;;;;;;8.53;7.70;;;;;;;26.77;52.69;95359.06;6112664;28;110133;-64
2023/07/16 04:39:27;;;;;;;14.73;10.50;;;;;;;26.77;52.04;95362.53;6117564;28;109217;-64
2023/07/16 04:42:30;;;;;;;16.53;8.80;;;;;;;26.76;52.26;95360.19;6118860;28;109937;-66
2023/07/16 04:45:33;;;;;;;15.13;8.70;;;;;;;26.76;52.25;95366.34;6109809;28;109302;-70
2023/07/16 04:48:38;;;;;;;12.57;8.17;;;;;;;26.80;51.65;95361.88;6102316;28;109128;-72
2023/07/16 04:51:41;;;;;;;22.30;8.07;;;;;;;26.73;52.53;95368.91;6112937;28;109884;-71
2023/07/16 04:54:44;;;;;;;13.23;8.23;;;;;;;26.79;52.39;95365.69;6112531;28;109385;-71
2023/07/16 04:57:47;;;;;;;13.50;7.73;;;;;;;26.83;52.44;95366.59;6106577;28;109306;-71
2023/07/16 05:00:51;;;;;;;9.97;7.13;;;;;;;26.87;52.19;95375.56;6121004;28;109321;-71
2023/07/16 05:03:55;;;;;;;13.03;8.50;;;;;;;26.88;52.33;95370.97;6131013;28;109514;-71
2023/07/16 05:06:58;;;;;;;12.93;10.20;;;;;;;26.82;52.57;95367.69;6118119;28;109060;-71
2023/07/16 05:10:02;;;;;;;18.17;11.10;;;;;;;26.78;52.07;95374.06;6107771;28;109210;-67
2023/07/16 05:13:05;;;;;;;10.70;9.80;;;;;;;26.74;52.50;95373.16;6112513;28;110445;-64
2023/07/16 05:16:08;;;;;;;9.47;8.57;;;;;;;26.89;52.54;95374.47;6111995;28;109017;-65
2023/07/16 05:19:12;;;;;;;17.17;8.70;;;;;;;26.78;52.69;95377.53;6112016;28;110286;-65
2023/07/16 05:22:15;;;;;;;10.60;8.53;;;;;;;26.78;53.18;95374.84;6135797;28;109074;-65
2023/07/16 05:25:19;;;;;;;16.87;7.70;;;;;;;26.72;53.68;95376.16;6124222;28;109193;-66
2023/07/16 05:28:22;;;;;;;14.03;7.43;;;;;;;26.76;53.47;95376.28;6122252;28;108864;-65
2023/07/16 05:31:25;;;;;;;12.30;8.03;;;;;;;26.77;53.68;95373.28;6102385;28;110231;-65
2023/07/16 05:34:30;;;;;;;15.27;7.50;;;;;;;26.81;53.58;95376.09;6112471;28;112071;-66
2023/07/16 05:37:33;;;;;;;12.60;8.07;;;;;;;26.85;53.04;95375.09;6111579;28;109410;-65
2023/07/16 05:40:36;;;;;;;12.47;7.80;;;;;;;26.92;52.92;95379.19;6116081;28;109704;-66
2023/07/16 05:43:39;;;;;;;11.07;8.60;;;;;;;26.96;52.34;95380.09;6105311;28;109318;-65
2023/07/16 05:46:42;;;;;;;13.33;7.97;;;;;;;26.99;52.74;95384.78;6115722;28;109090;-64
2023/07/16 05:49:47;;;;;;;15.70;7.50;;;;;;;27.04;53.10;95382.69;6114910;28;109626;-64
2023/07/16 05:52:50;;;;;;;9.13;7.20;;;;;;;27.10;52.75;95388.66;6107697;28;109795;-64
2023/07/16 05:55:53;;;;;;;15.10;7.50;;;;;;;27.11;52.63;95390.22;6115504;28;109201;-64
2023/07/16 05:58:57;;;;;;;7.37;6.67;;;;;;;27.11;52.97;95384.84;6115387;28;109069;-69
2023/07/16 06:02:00;;;;;;;8.10;7.30;;;;;;;27.10;53.05;95386.75;6115913;28;112051;-64
2023/07/16 06:05:05;;;;;;;7.27;6.67;;;;;;;27.11;52.92;95382.16;6106221;28;109775;-64
2023/07/16 06:08:08;;;;;;;7.77;7.00;;;;;;;27.18;53.13;95393.16;6115212;28;109081;-65
2023/07/16 06:11:12;;;;;;;7.90;6.97;;;;;;;27.24;53.01;95381.09;6115873;28;109070;-65
2023/07/16 06:14:16;;;;;;;8.70;7.03;;;;;;;27.30;52.55;95384.41;6115295;28;109061;-65
2023/07/16 06:17:19;;;;;;;7.53;6.47;;;;;;;27.34;52.30;95386.09;6104783;28;110037;-65
2023/07/16 06:20:24;;;;;;;8.30;7.10;;;;;;;27.39;52.87;95382.41;6114536;28;109046;-64
2023/07/16 06:23:27;;;;;;;7.73;6.90;;;;;;;27.41;52.83;95386.34;6126195;28;108876;-65
2023/07/16 06:26:30;;;;;;;8.40;7.60;;;;;;;27.55;52.68;95390.63;6109627;28;109109;-64
2023/07/16 06:29:33;;;;;;;8.70;7.50;;;;;;;27.55;52.11;95386.03;6108013;28;109041;-65
2023/07/16 06:32:36;;;;;;;9.07;8.20;;;;;;;27.70;52.08;95387.28;6115123;28;109653;-65
2023/07/16 06:35:41;;;;;;;8.13;7.33;;;;;;;27.81;52.22;95379.59;6120286;28;109368;-65
2023/07/16 06:38:44;;;;;;;9.77;7.60;;;;;;;27.75;52.84;95373.66;6103846;28;109190;-65
2023/07/16 06:41:47;;;;;;;8.17;7.57;;;;;;;27.77;52.86;95376.78;6115035;28;109097;-65
2023/07/16 06:44:50;;;;;;;8.50;7.80;;;;;;;27.71;52.57;95370.03;6114360;28;109428;-65
2023/07/16 06:47:53;;;;;;;8.23;7.40;;;;;;;27.56;53.37;95376.09;6114778;28;109134;-65
2023/07/16 06:50:58;;;;;;;9.53;7.27;;;;;;;27.61;52.52;95373.97;6103275;28;109191;-65
2023/07/16 06:54:01;;;;;;;7.07;6.43;;;;;;;27.73;51.30;95375.91;6122362;28;109027;-64
2023/07/16 06:57:04;;;;;;;6.80;6.30;;;;;;;27.88;51.24;95371.78;6136260;28;109229;-65
2023/07/16 07:00:10;;;;;;;6.93;6.33;;;;;;;28.08;50.63;95370.13;6124259;28;110109;-64
2023/07/16 07:03:14;;;;;;;8.40;7.63;;;;;;;28.25;52.78;95373.38;6107105;28;109094;-68
2023/07/16 07:06:18;;;;;;;15.33;9.43;;;;;;;28.22;52.69;95370.53;6115212;28;109239;-67
2023/07/16 07:09:21;;;;;;;12.43;9.83;;;;;;;28.05;53.00;95372.34;6138224;28;109233;-68
2023/07/16 07:12:24;;;;;;;9.80;8.90;;;;;;;27.96;52.37;95363.59;6119768;28;112236;-67
2023/07/16 07:15:28;;;;;;;10.00;8.87;;;;;;;27.96;52.38;95370.91;6118379;28;109146;-67
2023/07/16 07:18:31;;;;;;;7.67;7.07;;;;;;;28.02;51.54;95364.16;6113609;28;109080;-67
2023/07/16 07:21:36;;;;;;;8.17;7.17;;;;;;;28.10;50.98;95365.19;6102618;28;111806;-67
2023/07/16 07:24:39;;;;;;;8.70;7.40;;;;;;;28.05;51.77;95368.88;6104791;28;109103;-68
2023/07/16 07:27:42;;;;;;;9.00;6.90;;;;;;;27.40;50.90;95363.28;6113689;28;111579;-66
2023/07/16 07:30:45;;;;;;;8.03;7.23;;;;;;;26.73;50.55;95360.84;6113852;28;109091;-62
2023/07/16 07:33:49;;;;;;;7.50;6.80;;;;;;;26.19;49.49;95364.13;6119023;28;109154;-62
2023/07/16 07:36:53;;;;;;;9.97;7.60;;;;;;;26.01;48.68;95356.50;6120799;28;109682;-63
2023/07/16 07:39:56;;;;;;;8.00;7.20;;;;;;;25.73;48.81;95362.28;6137400;28;109076;-62
2023/07/16 07:42:59;;;;;;;10.43;7.03;;;;;;;25.79;48.04;95365.56;6117321;28;109028;-63
2023/07/16 07:46:03;;;;;;;8.13;7.40;;;;;;;25.54;48.07;95353.81;6117578;28;109155;-63
2023/07/16 07:49:06;;;;;;;10.20;7.47;;;;;;;25.57;47.24;95356.66;6120347;28;109062;-63
2023/07/16 07:52:10;;;;;;;10.97;7.47;;;;;;;25.50;47.13;95361.72;6128472;28;110239;-62
2023/07/16 07:55:14;;;;;;;10.70;7.23;;;;;;;25.30;46.49;95365.03;6128136;28;109260;-63
2023/07/16 07:58:17;;;;;;;8.80;7.77;;;;;;;25.16;46.33;95354.50;6097159;28;109041;-63
2023/07/16 08:01:20;;;;;;;12.00;11.00;;;;;;;24.64;45.65;95354.50;6110090;28;110157;-62
2023/07/16 08:04:24;;;;;;;13.83;12.63;;;;;;;24.55;45.41;95361.75;6113108;28;109593;-62
2023/07/16 08:07:29;;;;;;;18.27;16.43;;;;;;;24.36;45.16;95363.91;6103076;28;109150;-62
2023/07/16 08:10:32;;;;;;;18.70;16.93;;;;;;;24.40;45.24;95360.31;6081790;28;109122;-65
2023/07/16 08:13:35;;;;;;;20.10;18.20;;;;;;;24.27;44.95;95353.19;6112732;28;109181;-65
2023/07/16 08:16:38;;;;;;;21.30;19.50;;;;;;;24.07;45.46;95351.91;6099532;28;109074;-65
2023/07/16 08:19:41;;;;;;;21.07;19.27;;;;;;;24.19;45.35;95353.97;6109393;28;112187;-66
2023/07/16 08:22:46;;;;;;;20.53;18.67;;;;;;;24.15;45.18;95351.13;6103101;28;109466;-67
2023/07/16 08:25:50;;;;;;;20.80;19.10;;;;;;;24.18;44.63;95357.72;6098423;28;109097;-67
2023/07/16 08:28:53;;;;;;;21.00;19.10;;;;;;;24.37;44.57;95355.59;6103674;28;110213;-65
2023/07/16 08:31:56;;;;;;;23.60;21.60;;;;;;;24.35;45.03;95354.31;6104233;28;109229;-66
2023/07/16 08:34:59;;;;;;;24.23;22.13;;;;;;;24.28;45.52;95354.78;6126279;28;109067;-66
2023/07/16 08:38:04;;;;;;;26.27;24.17;;;;;;;24.51;45.45;95350.06;6128001;28;109029;-67
2023/07/16 08:41:07;;;;;;;26.67;24.40;;;;;;;24.38;45.57;95361.72;6105525;28;110058;-66
2023/07/16 08:44:13;;;;;;;27.13;24.93;;;;;;;24.46;45.74;95359.06;6100431;28;109124;-66
2023/07/16 08:47:16;;;;;;;27.03;24.80;;;;;;;24.34;45.89;95353.53;6110985;28;109318;-66
2023/07/16 08:50:22;;;;;;;25.23;23.13;;;;;;;24.36;46.27;95348.66;6111450;28;109197;-66
2023/07/16 08:53:27;;;;;;;27.20;25.00;;;;;;;24.30;46.18;95343.75;6111460;28;109896;-66
2023/07/16 08:56:30;;;;;;;27.27;25.07;;;;;;;24.29;46.37;95342.97;6104594;28;110573;-66
2023/07/16 08:59:33;;;;;;;27.33;25.13;;;;;;;24.12;46.93;95342.94;6124241;28;110087;-66
2023/07/16 09:02:36;;;;;;;28.07;25.63;;;;;;;24.42;46.34;95355.44;6111649;28;109856;-64
2023/07/16 09:05:40;;;;;;;27.60;23.73;;;;;;;24.50;45.09;95343.94;6106985;28;109073;-64
2023/07/16 09:08:44;;;;;;;26.10;23.43;;;;;;;24.32;44.53;95336.22;6102755;28;109071;-63
2023/07/16 09:11:48;;;;;;;27.77;23.83;;;;;;;24.09;44.24;95332.88;6109115;28;109131;-63
2023/07/16 09:14:51;;;;;;;26.33;23.53;;;;;;;23.91;44.02;95342.69;6098791;28;109571;-62
2023/07/16 09:17:55;;;;;;;24.00;21.97;;;;;;;24.02;43.24;95335.19;6105504;28;109223;-62
2023/07/16 09:21:01;;;;;;;25.77;22.93;;;;;;;23.98;42.72;95326.19;6115187;28;109409;-63
2023/07/16 09:24:09;;;;;;;25.40;23.00;;;;;;;23.90;42.46;95331.22;6113409;28;109109;-62
2023/07/16 09:27:12;;;;;;;24.73;22.40;;;;;;;23.87;42.05;95334.53;6114890;28;109074;-63
2023/07/16 09:30:16;;;;;;;24.30;22.10;;;;;;;23.49;42.73;95325.38;6101820;28;109063;-62
2023/07/16 09:33:21;;;;;;;24.47;22.17;;;;;;;23.51;42.94;95323.19;6116072;28;109060;-62
2023/07/16 09:36:25;;;;;;;23.10;21.00;;;;;;;23.60;42.80;95326.72;6107055;28;109127;-69
2023/07/16 09:39:30;;;;;;;23.10;20.70;;;;;;;23.72;42.29;95324.25;6103730;28;109089;-63
2023/07/16 09:42:37;;;;;;;23.87;21.90;;;;;;;23.51;41.94;95325.88;6109689;28;111410;-63
2023/07/16 09:45:41;;;;;;;21.80;19.80;;;;;;;23.47;41.90;95315.03;6115679;28;108991;-63
2023/07/16 09:48:45;;;;;;;21.77;19.70;;;;;;;23.42;41.78;95314.38;6115227;28;109102;-63
2023/07/16 09:51:49;;;;;;;22.50;20.13;;;;;;;23.54;41.64;95318.06;6100182;28;109059;-63
2023/07/16 09:54:57;;;;;;;21.13;19.07;;;;;;;23.66;42.86;95317.44;6114068;28;110895;-63
2023/07/16 09:58:01;;;;;;;20.37;18.57;;;;;;;23.76;43.42;95313.72;6092113;28;109074;-63
2023/07/16 10:01:06;;;;;;;21.17;19.47;;;;;;;24.03;43.39;95304.72;6106065;28;110105;-62
2023/07/16 10:04:14;;;;;;;22.20;20.13;;;;;;;24.16;43.53;95306.44;6092568;28;109517;-62
2023/07/16 10:07:22;;;;;;;20.40;18.50;;;;;;;24.26;44.26;95308.06;6101085;28;109066;-63
2023/07/16 10:10:40;;;;;;;19.60;17.97;;;;;;;24.37;44.03;95301.31;6097927;28;109461;-63
2023/07/16 10:13:43;;;;;;;20.77;19.17;;;;;;;24.33;43.53;95303.81;6108681;28;109113;-63
2023/07/16 10:16:48;;;;;;;21.60;19.80;;;;;;;24.03;44.25;95292.13;6095224;28;109319;-63
2023/07/16 10:19:56;;;;;;;20.67;18.87;;;;;;;24.15;44.68;95297.66;6113362;28;109082;-62
2023/07/16 10:23:10;;;;;;;20.70;19.10;;;;;;;24.09;45.15;95296.22;6114288;28;109093;-63
2023/07/16 10:26:16;;;;;;;19.70;18.10;;;;;;;24.10;45.37;95287.09;6080328;28;109102;-63
2023/07/16 10:29:22;;;;;;;20.70;18.83;;;;;;;24.24;44.69;95286.97;6108556;28;110343;-66
2023/07/16 10:32:29;;;;;;;20.87;19.17;;;;;;;24.09;45.14;95290.09;6114341;28;109176;-67
2023/07/16 10:35:35;;;;;;;21.30;19.60;;;;;;;24.07;46.05;95287.75;6114792;28;109126;-67
2023/07/16 10:38:42;;;;;;;21.47;19.67;;;;;;;24.19;45.62;95284.44;6104350;28;109333;-70
2023/07/16 10:41:47;;;;;;;20.93;19.17;;;;;;;24.37;45.02;95282.59;6113245;28;109147;-71
2023/07/16 10:44:52;;;;;;;20.63;18.90;;;;;;;24.41;45.29;95286.97;6100966;28;110082;-71
2023/07/16 10:47:55;;;;;;;21.67;19.60;;;;;;;24.43;44.79;95281.31;6095931;28;110227;-71
2023/07/16 10:50:58;;;;;;;23.27;21.03;;;;;;;24.48;44.58;95276.59;6103553;28;109345;-67
2023/07/16 10:54:05;;;;;;;22.80;20.87;;;;;;;24.39;43.58;95277.69;6099731;28;109078;-68
2023/07/16 10:57:10;;;;;;;22.23;20.30;;;;;;;24.25;42.52;95280.53;6111268;28;110400;-67
2023/07/16 11:00:13;;;;;;;22.10;19.90;;;;;;;24.18;42.17;95269.50;6103910;28;110082;-67
2023/07/16 11:03:17;;;;;;;21.47;19.27;;;;;;;24.33;42.21;95274.38;6108720;28;109113;-67
2023/07/16 11:06:20;;;;;;;21.47;19.67;;;;;;;24.46;41.84;95272.66;6098735;28;108983;-66
2023/07/16 11:09:23;;;;;;;20.00;18.30;;;;;;;24.40;41.65;95264.00;6113940;28;109097;-67
2023/07/16 11:12:28;;;;;;;20.70;19.00;;;;;;;24.41;41.79;95262.91;6090906;28;110324;-67
2023/07/16 11:15:33;;;;;;;19.47;17.87;;;;;;;24.36;41.67;95263.06;6090851;28;111359;-68
2023/07/16 11:18:36;;;;;;;19.90;18.10;;;;;;;24.41;41.25;95257.56;6109047;28;111635;-67
2023/07/16 11:21:39;;;;;;;18.77;17.27;;;;;;;24.28;41.38;95258.50;6111732;28;110465;-66
2023/07/16 11:24:44;;;;;;;17.23;15.83;;;;;;;24.30;41.45;95256.28;6107764;28;110057;-67
2023/07/16 11:27:48;;;;;;;17.60;16.20;;;;;;;24.41;40.62;95257.56;6112116;28;109096;-67
2023/07/16 11:30:51;;;;;;;18.77;17.13;;;;;;;24.40;41.00;95250.63;6113385;28;110327;-68
2023/07/16 11:34:00;;;;;;;16.40;15.00;;;;;;;24.32;41.39;95251.41;6103788;28;109175;-69
2023/07/16 11:37:11;;;;;;;16.13;14.73;;;;;;;24.28;41.02;95247.00;6112952;28;109051;-67
2023/07/16 11:40:17;;;;;;;16.13;14.83;;;;;;;24.37;40.52;95247.81;6113696;28;109615;-60
2023/07/16 11:43:21;;;;;;;15.87;14.60;;;;;;;24.18;40.64;95246.22;6096548;28;109142;-61
2023/07/16 11:46:24;;;;;;;15.80;14.40;;;;;;;24.27;40.46;95240.88;6080002;28;109165;-60
2023/07/16 11:49:28;;;;;;;15.93;14.73;;;;;;;24.33;40.08;95242.28;6114122;28;108739;-60
2023/07/16 11:52:31;;;;;;;16.17;14.77;;;;;;;24.41;39.58;95238.06;6113218;28;109384;-60
2023/07/16 11:55:35;;;;;;;15.57;14.27;;;;;;;24.37;39.65;95243.25;6113533;28;110644;-61
2023/07/16 11:58:40;;;;;;;15.60;14.40;;;;;;;24.34;39.15;95241.19;6104307;28;108763;-60
2023/07/16 12:01:43;;;;;;;14.87;13.67;;;;;;;24.27;39.27;95243.56;6113042;28;109187;-60
2023/07/16 12:04:46;;;;;;;15.30;14.10;;;;;;;24.28;39.11;95237.09;6112194;28;109068;-60
2023/07/16 12:07:49;;;;;;;14.27;13.17;;;;;;;24.26;39.12;95236.63;6106256;28;111351;-62
2023/07/16 12:10:52;;;;;;;14.43;13.33;;;;;;;24.21;38.43;95234.13;6112173;28;109132;-60
2023/07/16 12:13:57;;;;;;;14.20;13.00;;;;;;;23.96;38.96;95226.81;6113174;28;109068;-65
2023/07/16 12:17:00;;;;;;;13.60;12.50;;;;;;;23.53;40.35;95231.00;6112959;28;109189;-60
2023/07/16 12:20:04;;;;;;;14.20;13.10;;;;;;;23.38;40.84;95226.06;6102490;28;109279;-60
2023/07/16 12:23:07;;;;;;;13.83;12.73;;;;;;;23.34;40.90;95227.75;6112897;28;109569;-60
2023/07/16 12:26:11;;;;;;;12.97;11.97;;;;;;;23.33;41.12;95220.06;6112301;28;109159;-60
2023/07/16 12:29:17;;;;;;;14.90;13.63;;;;;;;23.17;40.79;95227.66;6088299;28;108722;-60
2023/07/16 12:32:20;;;;;;;12.93;11.93;;;;;;;23.18;40.27;95219.34;6078679;28;110209;-61
2023/07/16 12:35:23;;;;;;;12.63;11.70;;;;;;;23.53;40.27;95220.31;6088878;28;109042;-60
2023/07/16 12:38:27;;;;;;;12.53;11.53;;;;;;;23.47;40.31;95215.41;6088945;28;109214;-60
2023/07/16 12:41:30;;;;;;;12.73;11.70;;;;;;;23.29;41.57;95215.34;6084885;28;109092;-60
2023/07/16 12:44:34;;;;;;;12.80;11.80;;;;;;;23.32;42.33;95213.94;6083254;28;109460;-60
2023/07/16 12:47:38;;;;;;;13.17;12.17;;;;;;;23.60;41.37;95211.84;6088827;28;109428;-60
2023/07/16 12:50:42;;;;;;;12.60;11.60;;;;;;;23.48;41.32;95208.97;6088953;28;109115;-60
2023/07/16 12:53:46;;;;;;;11.90;11.00;;;;;;;23.20;42.83;95206.50;6079107;28;111002;-60
2023/07/16 12:56:49;;;;;;;11.60;10.70;;;;;;;23.14;42.53;95210.38;6088642;28;109102;-59
2023/07/16 12:59:54;;;;;;;14.33;11.50;;;;;;;23.65;41.47;95197.53;6076434;28;108997;-58
2023/07/16 13:02:57;;;;;;;13.97;12.87;;;;;;;23.46;44.90;95195.13;6083115;28;109173;-60
2023/07/16 13:06:00;;;;;;;17.70;16.30;;;;;;;23.45;49.25;95205.03;6067034;28;109928;-60
2023/07/16 13:09:05;;;;;;;19.20;17.60;;;;;;;23.70;48.46;95197.41;6112506;28;109479;-60
2023/07/16 13:12:09;;;;;;;19.03;17.53;;;;;;;23.70;48.94;95192.84;6085315;28;109093;-60
2023/07/16 13:15:13;;;;;;;18.60;17.10;;;;;;;23.53;49.28;95192.81;6088659;28;109113;-61
2023/07/16 13:18:18;;;;;;;17.50;16.10;;;;;;;23.77;48.46;95192.38;6105442;28;109673;-60
2023/07/16 13:21:21;;;;;;;17.60;16.23;;;;;;;23.91;47.42;95198.38;6084448;28;109375;-60
2023/07/16 13:24:25;;;;;;;17.30;16.00;;;;;;;23.83;47.10;95193.78;6088594;28;110160;-59
2023/07/16 13:27:29;;;;;;;17.43;16.13;;;;;;;23.68;46.42;95195.03;6076296;28;109019;-61
2023/07/16 13:30:33;;;;;;;16.60;15.13;;;;;;;23.71;45.88;95191.75;6110548;28;110371;-60
2023/07/16 13:33:37;;;;;;;16.80;15.40;;;;;;;23.49;46.10;95186.50;6106480;28;109560;-60
2023/07/16 13:36:40;;;;;;;17.30;15.93;;;;;;;23.71;45.67;95193.63;6087575;28;109088;-60
2023/07/16 13:39:43;;;;;;;17.17;15.33;;;;;;;23.69;45.45;95187.78;6077849;28;109073;-60
2023/07/16 13:42:46;;;;;;;16.53;15.13;;;;;;;23.51;44.96;95181.63;6104647;28;109336;-60
2023/07/16 13:45:51;;;;;;;16.57;15.13;;;;;;;23.63;45.44;95184.50;6107038;28;109411;-61
2023/07/16 13:48:54;;;;;;;15.70;14.30;;;;;;;23.54;45.70;95179.16;6106041;28;109491;-61
2023/07/16 13:52:01;;;;;;;15.80;14.40;;;;;;;23.44;45.64;95171.41;6100906;28;109909;-61
2023/07/16 13:55:05;;;;;;;15.53;14.27;;;;;;;23.66;45.23;95172.38;6111389;28;110095;-61
2023/07/16 13:58:08;;;;;;;15.10;13.70;;;;;;;23.38;45.33;95170.00;6114348;28;109069;-61
2023/07/16 14:01:13;;;;;;;14.93;13.63;;;;;;;23.39;45.26;95168.91;6121451;28;109220;-69
2023/07/16 14:04:16;;;;;;;15.13;13.67;;;;;;;23.60;45.22;95161.84;6117289;28;110298;-72